createdAt,value
2018-04-16T16:24:50.089Z,36.43
2018-04-16T16:27:17.723Z,45.20
2018-04-16T16:29:45.506Z,40.13
2018-04-16T16:32:13.161Z,40.30
2018-04-16T16:34:40.765Z,33.77
2018-04-16T16:37:09.155Z,38.80
2018-04-16T16:39:36.793Z,39.43
2018-04-16T16:42:05.274Z,37.87
2018-04-16T16:44:33.636Z,46.17
2018-04-16T16:47:01.281Z,48.93
2018-04-16T16:49:29.502Z,44.13
2018-04-16T16:51:57.849Z,38.53
2018-04-16T16:54:25.458Z,35.67
2018-04-16T16:56:54.120Z,45.23
2018-04-16T16:59:22.256Z,49.67
2018-04-16T17:01:49.841Z,34.67
2018-04-16T17:06:26.569Z,36.80
2018-04-16T17:08:54.167Z,37.37
2018-04-16T17:11:22.819Z,37.87
2018-04-16T17:13:55.339Z,39.93
2018-04-16T17:16:36.778Z,36.63
2018-04-16T17:19:16.189Z,35.17
2018-04-16T17:21:56.577Z,36.70
2018-04-16T17:24:35.019Z,29.00
2018-04-16T17:27:13.811Z,32.53
2018-04-16T17:29:52.025Z,29.63
2018-04-16T17:32:30.075Z,33.03
2018-04-16T17:35:08.086Z,33.07
2018-04-16T17:37:38.023Z,33.50
2018-04-16T17:40:16.704Z,37.53
2018-04-16T17:42:52.619Z,40.57
2018-04-16T17:45:22.608Z,38.40
2018-04-16T17:47:50.544Z,38.37
2018-04-16T17:50:22.151Z,39.50
2018-04-16T17:52:57.678Z,34.10
2018-04-16T17:55:34.429Z,39.37
2018-04-16T17:58:14.589Z,34.10
2018-04-16T18:00:50.794Z,34.97
2018-04-16T18:03:24.776Z,39.60
2018-04-16T18:06:03.202Z,35.77
2018-04-16T18:08:39.742Z,34.27
2018-04-16T18:11:18.336Z,33.80
2018-04-16T18:13:56.361Z,32.37
2018-04-16T18:16:31.165Z,33.00
2018-04-16T18:19:05.134Z,37.27
2018-04-16T18:21:43.794Z,29.47
2018-04-16T18:24:21.460Z,34.53
2018-04-16T18:26:53.495Z,32.33
2018-04-16T18:29:28.421Z,30.73
2018-04-16T18:32:07.556Z,31.93
2018-04-16T18:34:47.308Z,29.80
2018-04-16T18:37:26.744Z,32.63
2018-04-16T18:39:56.339Z,30.97
2018-04-16T18:42:34.945Z,29.07
2018-04-16T18:45:13.875Z,28.23
2018-04-16T18:47:53.039Z,30.33
2018-04-16T18:50:27.052Z,28.67
2018-04-16T18:53:06.057Z,26.67
2018-04-16T18:55:45.008Z,30.97
2018-04-16T18:58:23.195Z,31.03
2018-04-16T19:00:52.660Z,28.40
2018-04-16T19:03:28.443Z,29.03
2018-04-16T19:06:09.801Z,26.97
2018-04-16T19:08:38.354Z,30.90
2018-04-16T19:11:11.811Z,28.73
2018-04-16T19:13:40.403Z,36.77
2018-04-16T19:16:19.621Z,31.60
2018-04-16T19:18:47.974Z,37.57
2018-04-16T19:21:21.157Z,37.13
2018-04-16T19:23:48.765Z,42.73
2018-04-16T19:26:16.354Z,38.10
2018-04-16T19:28:44.077Z,43.67
2018-04-16T19:31:12.534Z,43.00
2018-04-16T19:33:46.428Z,46.97
2018-04-16T19:36:14.128Z,45.27
2018-04-16T19:38:41.715Z,46.67
2018-04-16T19:41:09.308Z,46.97
2018-04-16T19:43:36.919Z,46.93
2018-04-16T19:46:04.587Z,49.20
2018-04-16T19:48:37.761Z,47.00
2018-04-16T19:51:05.344Z,44.60
2018-04-16T19:53:33.106Z,49.73
2018-04-16T19:56:06.376Z,50.70
2018-04-16T19:58:33.981Z,46.37
2018-04-16T20:01:01.614Z,58.20
2018-04-16T20:03:34.822Z,60.17
2018-04-16T20:06:02.487Z,60.57
2018-04-16T20:08:30.111Z,59.03
2018-04-16T20:10:57.855Z,60.97
2018-04-16T20:13:25.543Z,56.00
2018-04-16T20:15:53.173Z,61.73
2018-04-16T20:18:20.808Z,58.73
2018-04-16T20:20:49.207Z,60.67
2018-04-16T20:23:16.894Z,56.70
2018-04-16T20:25:44.542Z,59.10
2018-04-16T20:28:12.899Z,56.00
2018-04-16T20:30:41.295Z,60.03
2018-04-16T20:33:08.887Z,55.10
2018-04-16T20:35:36.627Z,56.57
2018-04-16T20:38:04.272Z,58.20
2018-04-16T20:40:31.859Z,57.63
2018-04-16T20:42:59.490Z,56.50
2018-04-16T20:45:27.155Z,56.60
2018-04-16T20:47:55.578Z,52.40
2018-04-16T20:50:23.179Z,52.03
2018-04-16T20:52:50.795Z,54.17
2018-04-16T20:55:18.380Z,51.27
2018-04-16T20:57:46.769Z,53.57
2018-04-16T21:00:14.388Z,57.73
2018-04-16T21:02:41.992Z,52.77
2018-04-16T21:05:09.677Z,57.40
2018-04-16T21:07:37.306Z,53.47
2018-04-16T21:12:37.847Z,53.00
2018-04-16T21:15:05.494Z,52.80
2018-04-16T21:17:33.839Z,52.60
2018-04-16T21:20:02.239Z,52.97
2018-04-16T21:22:30.592Z,51.30
2018-04-16T21:24:58.171Z,52.07
2018-04-16T21:27:25.747Z,51.07
2018-04-16T21:29:54.131Z,49.20
2018-04-16T21:32:21.751Z,48.13
2018-04-16T21:34:49.324Z,49.63
2018-04-16T21:37:16.935Z,47.33
2018-04-16T21:39:44.507Z,46.67
2018-04-16T21:42:12.120Z,46.77
2018-04-16T21:44:40.463Z,47.13
2018-04-16T21:47:08.122Z,46.63
2018-04-16T21:49:35.704Z,43.93
2018-04-16T21:52:04.043Z,45.07
2018-04-16T21:54:31.679Z,44.30
2018-04-16T21:56:59.251Z,43.63
2018-04-16T21:59:26.870Z,44.23
2018-04-16T22:01:54.444Z,42.33
2018-04-16T22:04:22.051Z,43.90
2018-04-16T22:06:49.671Z,41.10
2018-04-16T22:09:17.253Z,40.77
2018-04-16T22:11:44.880Z,41.03
2018-04-16T22:14:12.456Z,41.37
2018-04-16T22:16:40.080Z,41.23
2018-04-16T22:19:07.695Z,38.60
2018-04-16T22:21:35.311Z,39.10
2018-04-16T22:24:02.945Z,39.30
2018-04-16T22:26:31.287Z,38.53
2018-04-16T22:28:58.896Z,38.87
2018-04-16T22:31:27.497Z,36.90
2018-04-16T22:33:55.147Z,39.00
2018-04-16T22:36:22.719Z,36.77
2018-04-16T22:38:50.343Z,37.13
2018-04-16T22:41:18.691Z,39.77
2018-04-16T22:43:46.275Z,35.53
2018-04-16T22:46:14.618Z,35.93
2018-04-16T22:48:42.196Z,35.20
2018-04-16T22:51:10.567Z,34.23
2018-04-16T22:53:38.150Z,34.10
2018-04-16T22:56:05.775Z,33.77
2018-04-16T22:58:33.356Z,33.03
2018-04-16T23:01:01.740Z,33.77
2018-04-16T23:03:30.082Z,31.97
2018-04-16T23:05:57.711Z,33.27
2018-04-16T23:08:25.337Z,31.20
2018-04-16T23:10:52.951Z,31.40
2018-04-16T23:13:20.531Z,32.20
2018-04-16T23:15:48.916Z,30.93
2018-04-16T23:18:17.300Z,30.03
2018-04-16T23:20:45.684Z,30.37
2018-04-16T23:23:13.260Z,29.40
2018-04-16T23:25:40.877Z,30.70
2018-04-16T23:28:09.279Z,28.30
2018-04-16T23:30:36.850Z,28.83
2018-04-16T23:33:04.431Z,28.97
2018-04-16T23:35:32.049Z,30.07
2018-04-16T23:38:00.391Z,29.37
2018-04-16T23:40:28.033Z,27.83
2018-04-16T23:42:55.618Z,27.57
2018-04-16T23:45:23.198Z,27.70
2018-04-16T23:47:51.542Z,26.17
2018-04-16T23:50:19.168Z,26.83
2018-04-16T23:52:46.779Z,26.53
2018-04-16T23:55:15.168Z,25.87
2018-04-16T23:57:42.779Z,27.10
